createdAt,value
2022-09-14T00:00:09.815Z,6.83
2022-09-14T00:02:37.546Z,11.43
2022-09-14T00:05:07.429Z,9.40
2022-09-14T00:07:35.043Z,8.83
2022-09-14T00:10:02.690Z,8.20
2022-09-14T00:12:30.273Z,9.17
2022-09-14T00:14:57.806Z,9.07
2022-09-14T00:17:25.367Z,10.37
2022-09-14T00:19:53.272Z,8.60
2022-09-14T00:22:22.220Z,10.17
2022-09-14T00:24:50.366Z,13.03
2022-09-14T00:27:17.925Z,9.97
2022-09-14T00:29:48.451Z,8.83
2022-09-14T00:32:16.133Z,9.07
2022-09-14T00:34:43.760Z,11.67
2022-09-14T00:37:12.068Z,7.87
2022-09-14T00:39:41.289Z,8.03
2022-09-14T00:42:09.159Z,8.80
2022-09-14T00:45:00.950Z,6.27
2022-09-14T00:47:29.574Z,6.93
2022-09-14T00:49:57.147Z,6.80
2022-09-14T00:52:26.684Z,7.93
2022-09-14T00:54:57.499Z,7.60
2022-09-14T00:57:26.513Z,7.13
2022-09-14T00:59:54.647Z,8.37
2022-09-14T01:02:23.566Z,7.63
2022-09-14T01:04:51.805Z,7.17
2022-09-14T01:07:28.922Z,8.83
2022-09-14T01:10:10.094Z,5.53
2022-09-14T01:12:44.486Z,6.20
2022-09-14T01:15:18.642Z,7.40
2022-09-14T01:17:50.933Z,7.90
2022-09-14T01:20:25.634Z,11.20
2022-09-14T01:23:01.433Z,13.83
2022-09-14T01:25:59.879Z,11.97
2022-09-14T01:28:33.176Z,10.53
2022-09-14T01:31:04.316Z,11.40
2022-09-14T01:33:35.415Z,12.33
2022-09-14T01:36:04.824Z,20.13
2022-09-14T01:38:34.362Z,11.83
2022-09-14T01:41:04.816Z,12.90
2022-09-14T01:43:36.963Z,11.97
2022-09-14T01:46:07.447Z,13.50
2022-09-14T01:48:38.798Z,11.23
2022-09-14T01:51:11.063Z,13.63
2022-09-14T01:53:41.262Z,10.77
2022-09-14T01:56:15.167Z,12.40
2022-09-14T01:58:47.104Z,11.33
2022-09-14T02:01:17.478Z,12.40
2022-09-14T02:03:48.201Z,13.53
2022-09-14T02:06:19.580Z,15.63
2022-09-14T02:08:47.279Z,15.10
2022-09-14T02:11:14.832Z,13.53
2022-09-14T02:13:43.797Z,16.23
2022-09-14T02:16:11.798Z,15.17
2022-09-14T02:18:39.755Z,15.77
2022-09-14T02:21:10.346Z,18.73
2022-09-14T02:23:37.960Z,16.63
2022-09-14T02:26:05.777Z,14.40
2022-09-14T02:28:33.311Z,16.10
2022-09-14T02:31:08.542Z,15.63
2022-09-14T02:33:41.956Z,15.73
2022-09-14T02:36:16.137Z,14.60
2022-09-14T02:38:47.847Z,15.07
2022-09-14T02:41:19.495Z,14.70
2022-09-14T02:43:50.632Z,14.53
2022-09-14T02:46:26.663Z,17.17
2022-09-14T02:48:59.635Z,18.97
2022-09-14T02:51:30.182Z,18.03
2022-09-14T02:54:01.701Z,19.10
2022-09-14T02:56:29.659Z,19.77
2022-09-14T02:58:57.321Z,17.70
2022-09-14T03:01:26.555Z,19.40
2022-09-14T03:03:54.172Z,17.13
2022-09-14T03:06:21.980Z,16.50
2022-09-14T03:08:50.155Z,16.20
2022-09-14T03:11:17.860Z,16.13
2022-09-14T03:13:45.434Z,17.80
2022-09-14T03:16:14.342Z,17.03
2022-09-14T03:18:43.528Z,19.00
2022-09-14T03:21:13.391Z,20.33
2022-09-14T03:23:42.616Z,22.87
2022-09-14T03:26:11.154Z,21.40
2022-09-14T03:28:38.998Z,20.57
2022-09-14T03:31:09.762Z,19.90
2022-09-14T03:33:37.901Z,19.30
2022-09-14T03:36:13.413Z,20.37
2022-09-14T03:38:44.425Z,19.17
2022-09-14T03:41:12.829Z,21.50
2022-09-14T03:43:40.685Z,25.03
2022-09-14T03:46:08.985Z,27.87
2022-09-14T03:48:36.815Z,28.07
2022-09-14T03:51:06.082Z,78.37
2022-09-14T03:53:35.486Z,50.50
2022-09-14T03:56:07.826Z,94.00
2022-09-14T03:58:35.417Z,222.20
2022-09-14T04:01:07.036Z,140.20
2022-09-14T04:03:35.331Z,37.00
2022-09-14T04:06:05.273Z,20.53
2022-09-14T04:08:33.406Z,19.77
2022-09-14T04:11:07.849Z,18.30
2022-09-14T04:13:35.442Z,17.00
2022-09-14T04:16:03.375Z,15.63
2022-09-14T04:18:31.719Z,15.57
2022-09-14T04:21:04.508Z,16.47
2022-09-14T04:23:46.253Z,18.60
2022-09-14T04:26:21.419Z,17.67
2022-09-14T04:28:49.031Z,18.03
2022-09-14T04:31:16.670Z,18.70
2022-09-14T04:33:45.125Z,17.10
2022-09-14T04:36:14.570Z,18.17
2022-09-14T04:38:43.479Z,16.63
2022-09-14T04:41:12.989Z,16.70
2022-09-14T04:43:42.583Z,14.17
2022-09-14T04:46:12.815Z,13.80
2022-09-14T04:48:40.621Z,14.17
2022-09-14T04:51:10.697Z,12.57
2022-09-14T04:53:39.433Z,14.23
2022-09-14T04:56:08.349Z,14.47
2022-09-14T04:58:39.286Z,14.80
2022-09-14T05:01:09.447Z,15.37
2022-09-14T05:03:38.838Z,15.30
2022-09-14T05:06:08.131Z,16.33
2022-09-14T05:08:36.544Z,17.70
2022-09-14T05:11:04.185Z,17.33
2022-09-14T05:13:31.786Z,18.97
2022-09-14T05:16:08.204Z,16.23
2022-09-14T05:18:35.824Z,17.70
2022-09-14T05:21:08.287Z,17.43
2022-09-14T05:23:36.256Z,15.47
2022-09-14T05:26:05.222Z,14.97
2022-09-14T05:28:33.819Z,15.03
2022-09-14T05:31:05.295Z,16.83
2022-09-14T05:33:32.945Z,16.20
2022-09-14T05:38:30.727Z,14.80
2022-09-14T05:40:58.805Z,15.43
2022-09-14T05:43:26.724Z,17.13
2022-09-14T05:45:54.330Z,17.30
2022-09-14T05:48:22.162Z,17.33
2022-09-14T05:53:23.991Z,17.03
2022-09-14T05:56:01.912Z,16.30
2022-09-14T05:58:29.458Z,19.37
2022-09-14T06:00:57.315Z,14.70
2022-09-14T06:03:25.249Z,17.93
2022-09-14T06:05:54.775Z,15.33
2022-09-14T06:08:23.151Z,12.70
2022-09-14T06:10:50.700Z,13.63
2022-09-14T06:13:19.580Z,13.63
2022-09-14T06:15:47.114Z,14.43
2022-09-14T06:18:14.658Z,14.00
2022-09-14T06:20:50.754Z,12.90
2022-09-14T06:23:18.538Z,13.93
2022-09-14T06:25:46.162Z,12.43
2022-09-14T06:28:13.901Z,14.33
2022-09-14T06:30:45.172Z,13.33
2022-09-14T06:33:12.779Z,12.93
2022-09-14T06:35:42.008Z,13.03
2022-09-14T06:38:09.751Z,12.93
2022-09-14T06:40:37.365Z,12.83
2022-09-14T06:43:04.943Z,11.77
2022-09-14T06:45:33.077Z,11.50
2022-09-14T06:48:02.293Z,10.87
2022-09-14T06:50:29.802Z,10.83
2022-09-14T06:52:57.448Z,13.63
2022-09-14T06:55:25.092Z,10.10
2022-09-14T07:00:27.592Z,10.70
2022-09-14T07:02:55.891Z,8.80
2022-09-14T07:05:24.876Z,9.57
2022-09-14T07:07:53.341Z,8.50
2022-09-14T07:10:20.955Z,7.10
2022-09-14T07:12:48.669Z,8.90
2022-09-14T07:15:16.398Z,8.40
2022-09-14T07:17:45.784Z,9.83
2022-09-14T07:20:13.752Z,8.40
2022-09-14T07:22:42.890Z,7.97
2022-09-14T07:25:09.955Z,8.00
2022-09-14T07:27:38.655Z,7.10
2022-09-14T07:35:07.955Z,5.50
2022-09-14T07:37:36.862Z,6.27
2022-09-14T07:40:06.726Z,6.03
2022-09-14T07:42:34.388Z,5.57
2022-09-14T07:45:02.000Z,4.93
2022-09-14T07:47:29.729Z,4.30
2022-09-14T07:49:57.368Z,3.90
2022-09-14T07:52:25.147Z,3.83
2022-09-14T07:54:52.978Z,4.30
2022-09-14T07:57:39.363Z,4.30
2022-09-14T08:02:44.418Z,4.90
2022-09-14T08:05:12.618Z,4.70
2022-09-14T08:07:40.266Z,5.03
2022-09-14T08:10:09.174Z,4.87
2022-09-14T08:12:38.224Z,5.07
2022-09-14T08:15:07.058Z,5.53
2022-09-14T08:17:34.582Z,6.33
2022-09-14T08:20:08.298Z,6.43
2022-09-14T08:22:39.018Z,6.33
2022-09-14T08:25:07.912Z,6.03
2022-09-14T08:27:35.548Z,6.03
2022-09-14T08:30:05.241Z,6.73
2022-09-14T08:32:32.927Z,6.10
2022-09-14T08:35:03.100Z,5.20
2022-09-14T08:37:31.005Z,4.87
2022-09-14T08:39:59.073Z,4.37
2022-09-14T08:42:26.996Z,5.07
2022-09-14T08:44:57.706Z,4.37
2022-09-14T08:47:29.059Z,4.07
2022-09-14T08:50:00.874Z,4.33
2022-09-14T08:52:33.683Z,5.30
2022-09-14T08:55:02.929Z,4.50
2022-09-14T08:57:38.526Z,4.70
2022-09-14T09:00:10.326Z,4.97
2022-09-14T09:03:05.156Z,4.53
2022-09-14T09:05:39.195Z,5.67
2022-09-14T09:08:15.648Z,4.80
2022-09-14T09:10:43.429Z,6.80
2022-09-14T09:13:13.661Z,5.33
2022-09-14T09:15:45.844Z,4.17
2022-09-14T09:18:17.328Z,5.17
2022-09-14T09:20:47.620Z,4.83
2022-09-14T09:23:16.688Z,4.67
2022-09-14T09:25:52.882Z,4.77
2022-09-14T09:28:23.716Z,4.40
2022-09-14T09:30:51.845Z,5.67
2022-09-14T09:33:22.697Z,6.83
2022-09-14T09:35:50.455Z,5.83
2022-09-14T09:38:20.017Z,4.90
2022-09-14T09:40:51.608Z,4.83
2022-09-14T09:43:33.613Z,6.73
2022-09-14T09:46:08.756Z,4.93
2022-09-14T09:48:44.109Z,4.50
2022-09-14T09:51:13.705Z,5.00
2022-09-14T09:53:47.889Z,5.93
2022-09-14T09:56:19.468Z,4.70
2022-09-14T09:58:51.458Z,4.77
2022-09-14T10:01:21.178Z,4.87
2022-09-14T10:04:03.899Z,5.87
2022-09-14T10:06:32.250Z,4.50
2022-09-14T10:08:59.833Z,6.07
2022-09-14T10:11:33.874Z,7.57
2022-09-14T10:14:02.641Z,6.07
2022-09-14T10:16:35.979Z,6.27
2022-09-14T10:19:05.200Z,5.67
2022-09-14T10:21:32.788Z,6.07
2022-09-14T10:24:07.254Z,5.87
2022-09-14T10:26:36.832Z,5.93
2022-09-14T10:29:27.231Z,5.90
2022-09-14T10:31:57.621Z,6.57
2022-09-14T10:34:29.701Z,6.50
2022-09-14T10:37:06.223Z,7.07
2022-09-14T10:39:40.778Z,7.77
2022-09-14T10:42:13.512Z,7.47
2022-09-14T10:44:48.698Z,6.37
2022-09-14T10:47:26.925Z,7.73
2022-09-14T10:50:07.314Z,6.83
2022-09-14T10:52:43.584Z,9.80
2022-09-14T10:55:24.229Z,6.27
2022-09-14T10:57:58.025Z,6.90
2022-09-14T11:00:25.775Z,6.80
2022-09-14T11:03:11.895Z,6.30
2022-09-14T11:05:46.393Z,8.10
2022-09-14T11:08:21.978Z,6.80
2022-09-14T11:11:01.548Z,8.53
2022-09-14T11:13:43.342Z,8.50
2022-09-14T11:16:23.334Z,7.47
2022-09-14T11:19:00.440Z,7.20
2022-09-14T11:21:35.909Z,10.27
2022-09-14T11:24:11.673Z,7.97
2022-09-14T11:26:42.613Z,8.37
2022-09-14T11:29:17.753Z,7.60
2022-09-14T11:32:10.122Z,7.77
2022-09-14T11:34:42.523Z,8.77
2022-09-14T11:37:16.165Z,7.50
2022-09-14T11:39:47.517Z,7.43
2022-09-14T11:42:19.032Z,12.57
2022-09-14T11:44:47.209Z,9.40
2022-09-14T11:47:18.023Z,14.40
2022-09-14T11:49:55.065Z,8.17
2022-09-14T11:52:25.334Z,14.87
2022-09-14T11:54:53.379Z,10.60
2022-09-14T11:57:22.710Z,8.90
2022-09-14T11:59:53.247Z,10.80
2022-09-14T12:02:59.293Z,11.13
2022-09-14T12:05:37.231Z,12.73
2022-09-14T12:08:05.340Z,9.58
2022-09-14T12:10:35.655Z,10.90
2022-09-14T12:13:23.444Z,10.50
2022-09-14T12:16:02.693Z,11.80
2022-09-14T12:18:32.228Z,12.07
2022-09-14T12:23:27.340Z,14.67
2022-09-14T12:25:58.234Z,12.00
2022-09-14T12:28:50.121Z,13.17
2022-09-14T12:31:20.297Z,12.10
2022-09-14T12:34:15.343Z,11.80
2022-09-14T12:39:34.923Z,9.33
2022-09-14T12:44:34.875Z,10.83
2022-09-14T12:49:32.377Z,11.07
2022-09-14T12:52:02.274Z,18.23
2022-09-14T12:54:32.442Z,12.20
2022-09-14T12:59:50.234Z,13.73
2022-09-14T13:04:45.203Z,13.27
2022-09-14T13:07:15.432Z,11.83
2022-09-14T13:14:59.408Z,9.20
2022-09-14T13:17:29.490Z,14.20
2022-09-14T13:20:02.533Z,10.13
2022-09-14T13:22:32.292Z,9.90
2022-09-14T13:25:01.294Z,10.57
2022-09-14T13:27:33.572Z,11.40
2022-09-14T13:30:03.522Z,9.37
2022-09-14T13:32:32.059Z,11.53
2022-09-14T13:35:07.557Z,14.40
2022-09-14T13:37:35.186Z,12.23
2022-09-14T13:40:03.149Z,9.67
2022-09-14T13:42:31.406Z,10.27
2022-09-14T13:44:59.249Z,10.67
2022-09-14T13:47:27.079Z,10.00
2022-09-14T13:49:55.389Z,11.40
2022-09-14T13:52:59.914Z,9.47
2022-09-14T13:55:26.243Z,7.10
2022-09-14T13:58:17.988Z,8.17
2022-09-14T14:00:51.939Z,7.80
2022-09-14T14:03:29.879Z,8.77
2022-09-14T14:05:57.922Z,9.70
2022-09-14T14:08:33.506Z,5.90
2022-09-14T14:11:02.843Z,7.93
2022-09-14T14:13:32.957Z,6.47
2022-09-14T14:16:18.717Z,9.33
2022-09-14T14:18:48.659Z,6.93
2022-09-14T14:24:12.296Z,5.90
2022-09-14T14:26:39.425Z,6.53
2022-09-14T14:29:10.975Z,7.30
2022-09-14T14:31:39.261Z,9.57
2022-09-14T14:34:18.548Z,9.40
2022-09-14T14:36:48.492Z,10.00
2022-09-14T14:44:13.385Z,6.80
2022-09-14T14:49:10.343Z,6.90
2022-09-14T14:51:42.986Z,6.50
2022-09-14T14:54:14.544Z,11.20
2022-09-14T14:56:46.829Z,6.20
2022-09-14T15:02:23.554Z,7.90
2022-09-14T15:07:20.790Z,7.33
2022-09-14T15:09:49.587Z,7.77
2022-09-14T15:12:20.302Z,5.07
2022-09-14T15:14:56.491Z,6.47
2022-09-14T15:20:13.944Z,4.60
2022-09-14T15:25:09.663Z,6.80
2022-09-14T15:36:05.656Z,7.00
2022-09-14T15:38:56.608Z,3.57
2022-09-14T15:44:16.578Z,3.83
2022-09-14T15:51:51.533Z,4.50
2022-09-14T16:04:24.445Z,4.53
2022-09-14T16:09:21.478Z,4.80
2022-09-14T16:11:52.120Z,3.33
2022-09-14T16:19:34.567Z,2.47
2022-09-14T16:22:04.465Z,6.10
2022-09-14T16:24:34.615Z,4.23
2022-09-14T16:27:02.937Z,4.07
2022-09-14T16:29:32.111Z,4.83
2022-09-14T16:32:00.146Z,3.63
2022-09-14T16:37:01.622Z,2.90
2022-09-14T16:42:20.313Z,5.50
2022-09-14T16:44:48.439Z,2.20
2022-09-14T16:49:42.550Z,2.43
2022-09-14T16:54:36.559Z,3.93
2022-09-14T16:59:33.496Z,4.17
2022-09-14T17:02:02.513Z,1.87
2022-09-14T17:04:30.196Z,2.83
2022-09-14T17:06:57.750Z,2.77
2022-09-14T17:09:26.991Z,1.40
2022-09-14T17:11:55.300Z,2.03
2022-09-14T17:16:50.503Z,2.70
2022-09-14T17:19:19.861Z,6.37
2022-09-14T17:21:48.445Z,3.53
2022-09-14T17:24:18.815Z,3.17
2022-09-14T17:26:46.850Z,1.80
2022-09-14T17:29:15.155Z,3.67
2022-09-14T17:31:44.345Z,1.73
2022-09-14T17:34:13.611Z,3.93
2022-09-14T17:36:42.550Z,5.23
2022-09-14T17:39:12.719Z,1.70
2022-09-14T17:44:09.499Z,2.03
2022-09-14T17:46:44.421Z,3.30
2022-09-14T17:49:16.269Z,2.53
2022-09-14T17:51:45.293Z,2.70
2022-09-14T17:54:13.679Z,3.97
2022-09-14T17:56:41.554Z,2.00
2022-09-14T17:59:12.356Z,2.53
2022-09-14T18:01:40.102Z,3.70
2022-09-14T18:04:09.765Z,2.27
2022-09-14T18:06:39.425Z,5.07
2022-09-14T18:09:10.744Z,2.57
2022-09-14T18:14:07.036Z,2.77
2022-09-14T18:16:35.480Z,3.53
2022-09-14T18:19:03.078Z,2.50
2022-09-14T18:21:30.663Z,1.53
2022-09-14T18:23:58.354Z,3.40
2022-09-14T18:26:27.230Z,2.07
2022-09-14T18:28:56.067Z,1.87
2022-09-14T18:31:24.297Z,2.13
2022-09-14T18:33:53.320Z,2.00
2022-09-14T18:36:21.763Z,2.17
2022-09-14T18:38:51.321Z,2.10
2022-09-14T18:41:21.658Z,3.67
2022-09-14T18:43:52.132Z,1.70
2022-09-14T18:46:21.699Z,6.03
2022-09-14T18:48:52.573Z,2.83
2022-09-14T18:51:20.295Z,2.50
2022-09-14T18:53:48.561Z,2.37
2022-09-14T18:56:17.919Z,1.83
2022-09-14T18:58:48.803Z,5.60
2022-09-14T19:01:17.981Z,4.30
2022-09-14T19:03:46.089Z,2.33
2022-09-14T19:06:15.262Z,1.83
2022-09-14T19:08:43.527Z,3.90
2022-09-14T19:11:12.215Z,2.83
2022-09-14T19:13:39.872Z,2.33
2022-09-14T19:16:08.468Z,1.80
2022-09-14T19:18:37.869Z,1.93
2022-09-14T19:23:33.277Z,4.37
2022-09-14T19:26:04.399Z,5.07
2022-09-14T19:28:32.825Z,2.50
2022-09-14T19:31:00.577Z,4.03
2022-09-14T19:33:28.148Z,3.90
2022-09-14T19:35:57.070Z,2.33
2022-09-14T19:38:24.677Z,2.37
2022-09-14T19:40:53.172Z,3.23
2022-09-14T19:43:20.824Z,3.50
2022-09-14T19:45:48.862Z,5.43
2022-09-14T19:48:16.458Z,4.37
2022-09-14T19:50:44.079Z,3.17
2022-09-14T19:53:13.231Z,2.33
2022-09-14T19:55:40.795Z,2.63
2022-09-14T19:58:08.401Z,6.20
2022-09-14T20:00:36.366Z,2.50
2022-09-14T20:03:03.997Z,3.33
2022-09-14T20:05:31.652Z,4.13
2022-09-14T20:07:59.192Z,4.57
2022-09-14T20:10:28.085Z,3.57
2022-09-14T20:12:55.597Z,3.23
2022-09-14T20:15:23.157Z,5.17
2022-09-14T20:17:54.793Z,4.77
2022-09-14T20:20:22.316Z,3.33
2022-09-14T20:22:50.324Z,2.77
2022-09-14T20:25:17.929Z,2.40
2022-09-14T20:27:47.679Z,7.37
2022-09-14T20:30:15.314Z,2.67
2022-09-14T20:32:42.863Z,2.30
2022-09-14T20:35:10.637Z,2.20
2022-09-14T20:37:38.244Z,3.73
2022-09-14T20:40:06.903Z,4.67
2022-09-14T20:42:34.531Z,3.00
2022-09-14T20:45:03.770Z,1.60
2022-09-14T20:47:31.316Z,2.07
2022-09-14T20:49:58.861Z,3.40
2022-09-14T20:52:26.385Z,2.63
2022-09-14T20:54:54.100Z,2.33
2022-09-14T20:57:21.778Z,4.00
2022-09-14T20:59:49.323Z,2.13
2022-09-14T21:02:18.275Z,3.57
2022-09-14T21:04:45.928Z,2.67
2022-09-14T21:07:13.429Z,3.00
2022-09-14T21:09:40.958Z,3.37
2022-09-14T21:12:11.601Z,3.50
2022-09-14T21:14:39.107Z,2.47
2022-09-14T21:17:06.787Z,3.10
2022-09-14T21:19:36.015Z,5.93
2022-09-14T21:22:03.625Z,4.67
2022-09-14T21:24:31.699Z,3.20
2022-09-14T21:26:59.280Z,2.10
2022-09-14T21:29:26.912Z,2.97
2022-09-14T21:31:54.521Z,4.70
2022-09-14T21:34:22.489Z,4.87
2022-09-14T21:36:52.739Z,2.70
2022-09-14T21:39:22.956Z,2.83
2022-09-14T21:41:55.723Z,2.70
2022-09-14T21:44:29.782Z,2.90
2022-09-14T21:46:57.443Z,3.97
2022-09-14T21:49:24.998Z,2.00
2022-09-14T21:51:54.136Z,4.73
2022-09-14T21:54:22.167Z,5.03
2022-09-14T21:56:50.126Z,4.73
2022-09-14T21:59:19.352Z,4.43
2022-09-14T22:01:47.847Z,2.37
2022-09-14T22:04:17.770Z,2.37
2022-09-14T22:06:51.157Z,2.70
2022-09-14T22:09:21.730Z,2.87
2022-09-14T22:11:49.292Z,2.90
2022-09-14T22:14:18.803Z,4.03
2022-09-14T22:16:47.177Z,3.30
2022-09-14T22:19:16.589Z,3.80
2022-09-14T22:21:44.550Z,3.10
2022-09-14T22:24:14.545Z,3.13
2022-09-14T22:26:43.593Z,4.80
2022-09-14T22:29:12.790Z,6.50
2022-09-14T22:31:41.697Z,3.17
2022-09-14T22:34:09.765Z,4.27
2022-09-14T22:36:37.566Z,2.47
2022-09-14T22:39:05.901Z,2.67
2022-09-14T22:41:33.587Z,3.20
2022-09-14T22:44:03.617Z,3.37
2022-09-14T22:46:31.598Z,4.37
2022-09-14T22:48:59.391Z,2.70
2022-09-14T22:51:28.534Z,4.70
2022-09-14T22:53:56.662Z,3.03
2022-09-14T22:56:25.835Z,5.00
2022-09-14T22:58:53.970Z,3.13
2022-09-14T23:01:24.755Z,2.90
2022-09-14T23:03:57.027Z,4.87
2022-09-14T23:06:27.079Z,3.23
2022-09-14T23:08:54.586Z,6.17
2022-09-14T23:11:22.158Z,2.67
2022-09-14T23:13:50.077Z,5.63
2022-09-14T23:16:19.619Z,3.97
2022-09-14T23:18:52.539Z,5.00
2022-09-14T23:21:20.700Z,3.50
2022-09-14T23:23:51.764Z,4.97
2022-09-14T23:26:19.323Z,5.10
2022-09-14T23:28:51.918Z,6.60
2022-09-14T23:31:19.649Z,1.93
2022-09-14T23:33:50.300Z,3.43
2022-09-14T23:36:19.567Z,5.23
2022-09-14T23:38:48.024Z,2.60
2022-09-14T23:41:15.642Z,2.47
2022-09-14T23:43:43.532Z,3.93
2022-09-14T23:46:11.185Z,3.50
2022-09-14T23:48:38.835Z,4.33
2022-09-14T23:51:08.696Z,4.33
2022-09-14T23:53:38.199Z,2.27
2022-09-14T23:56:06.532Z,2.13
2022-09-14T23:58:34.215Z,3.10
